Terminal Aerodrome Forecast
Issued by NWS Boston, MA

Home | Current Version | Previous Version | Text Only | Print | Product List | Glossary On
Versions: 1 2 3 4 5 6 7 8 9 10 11 12 13 14 15 16 17 18 19 20 21 22 23 24 25 26 27 28 29 30 31 32 33 34 35 36 37 38 39 40 41 42 43 44 45 46 47 48 49 50
000
FTUS41 KBOX 271804 AAA
TAFORH
TAF AMD
KORH 271804Z 2718/2818 02008KT 3SM BR OVC004
     FM272000 VRB03KT 1SM BR OVC004
     FM280300 30005KT 1/2SM FG OVC004
     FM281200 08005KT 2SM -RA BR OVC004
     FM281500 08004KT 4SM -DZ BR OVC004=

USA.gov is the U.S. government's official web portal to all federal, state and local government web resources and services.